createdAt,value
2022-07-25T00:00:10.336Z,1012.27
2022-07-25T00:01:10.522Z,1012.30
2022-07-25T00:02:10.437Z,1012.32
2022-07-25T00:03:11.013Z,1012.31
2022-07-25T00:04:11.265Z,1012.27
2022-07-25T00:05:10.347Z,1012.23
2022-07-25T00:06:13.488Z,1012.26
2022-07-25T00:07:10.352Z,1012.21
2022-07-25T00:08:10.352Z,1012.23
2022-07-25T00:09:10.361Z,1012.17
2022-07-25T00:10:10.357Z,1012.18
2022-07-25T00:11:10.366Z,1012.22
2022-07-25T00:12:11.138Z,1012.17
2022-07-25T00:13:10.372Z,1012.17
2022-07-25T00:14:10.717Z,1012.15
2022-07-25T00:15:10.374Z,1012.16
2022-07-25T00:16:10.415Z,1012.13
2022-07-25T00:17:10.375Z,1012.16
2022-07-25T00:18:10.386Z,1012.12
2022-07-25T00:19:10.381Z,1012.08
2022-07-25T00:20:10.384Z,1012.09
2022-07-25T00:21:10.389Z,1012.07
2022-07-25T00:22:10.384Z,1012.06
2022-07-25T00:23:10.398Z,1012.03
2022-07-25T00:24:10.774Z,1012.04
2022-07-25T00:25:10.398Z,1012.01
2022-07-25T00:26:10.397Z,1012.00
2022-07-25T00:27:10.404Z,1012.01
2022-07-25T00:28:10.408Z,1012.01
2022-07-25T00:29:10.405Z,1012.03
2022-07-25T00:30:10.414Z,1011.98
2022-07-25T00:31:10.530Z,1011.99
2022-07-25T00:32:10.412Z,1011.96
2022-07-25T00:33:10.420Z,1011.99
2022-07-25T00:34:10.884Z,1011.94
2022-07-25T00:35:10.427Z,1011.94
2022-07-25T00:36:10.428Z,1011.91
2022-07-25T00:37:10.431Z,1011.96
2022-07-25T00:38:10.431Z,1011.92
2022-07-25T00:39:10.434Z,1011.93
2022-07-25T00:40:10.433Z,1011.94
2022-07-25T00:41:10.442Z,1011.93
2022-07-25T00:42:10.440Z,1011.93
2022-07-25T00:43:10.437Z,1011.89
2022-07-25T00:44:10.440Z,1011.92
2022-07-25T00:45:10.445Z,1011.91
2022-07-25T00:46:10.490Z,1011.92
2022-07-25T00:47:10.454Z,1011.91
2022-07-25T00:48:10.451Z,1011.91
2022-07-25T00:49:10.526Z,1011.90
2022-07-25T00:50:10.454Z,1011.87
2022-07-25T00:51:10.514Z,1011.87
2022-07-25T00:52:10.461Z,1011.87
2022-07-25T00:53:10.469Z,1011.88
2022-07-25T00:54:10.470Z,1011.83
2022-07-25T00:55:10.473Z,1011.86
2022-07-25T00:56:10.472Z,1011.86
2022-07-25T00:57:10.477Z,1011.86
2022-07-25T00:58:10.479Z,1011.84
2022-07-25T00:59:10.481Z,1011.84
2022-07-25T01:00:10.482Z,1011.81
2022-07-25T01:01:10.593Z,1011.81
2022-07-25T01:02:10.601Z,1011.83
2022-07-25T01:03:10.615Z,1011.78
2022-07-25T01:04:10.487Z,1011.77
2022-07-25T01:05:10.493Z,1011.79
2022-07-25T01:06:10.497Z,1011.78
2022-07-25T01:07:10.496Z,1011.76
2022-07-25T01:08:10.499Z,1011.73
2022-07-25T01:09:10.503Z,1011.72
2022-07-25T01:10:10.505Z,1011.70
2022-07-25T01:11:10.508Z,1011.68
2022-07-25T01:12:10.508Z,1011.63
2022-07-25T01:13:10.511Z,1011.65
2022-07-25T01:14:10.513Z,1011.64
2022-07-25T01:15:10.514Z,1011.62
2022-07-25T01:16:10.583Z,1011.63
2022-07-25T01:17:10.519Z,1011.63
2022-07-25T01:18:10.524Z,1011.61
2022-07-25T01:19:10.531Z,1011.59
2022-07-25T01:20:10.527Z,1011.59
2022-07-25T01:21:10.531Z,1011.55
2022-07-25T01:22:10.534Z,1011.59
2022-07-25T01:23:10.620Z,1011.55
2022-07-25T01:24:10.540Z,1011.56
2022-07-25T01:25:10.541Z,1011.56
2022-07-25T01:26:10.544Z,1011.52
2022-07-25T01:27:17.259Z,1011.54
2022-07-25T01:28:10.549Z,1011.53
2022-07-25T01:29:10.549Z,1011.52
2022-07-25T01:30:10.549Z,1011.51
2022-07-25T01:31:10.599Z,1011.53
2022-07-25T01:32:10.557Z,1011.49
2022-07-25T01:33:10.555Z,1011.45
2022-07-25T01:34:10.562Z,1011.47
2022-07-25T01:35:10.663Z,1011.44
2022-07-25T01:36:10.566Z,1011.42
2022-07-25T01:37:10.564Z,1011.45
2022-07-25T01:38:10.569Z,1011.40
2022-07-25T01:39:10.567Z,1011.45
2022-07-25T01:40:10.574Z,1011.42
2022-07-25T01:41:10.576Z,1011.42
2022-07-25T01:42:10.574Z,1011.42
2022-07-25T01:43:10.584Z,1011.41
2022-07-25T01:44:10.688Z,1011.39
2022-07-25T01:45:10.586Z,1011.41
2022-07-25T01:46:10.642Z,1011.41
2022-07-25T01:47:10.597Z,1011.42
2022-07-25T01:48:10.591Z,1011.38
2022-07-25T01:49:10.703Z,1011.40
2022-07-25T01:50:10.593Z,1011.38
2022-07-25T01:51:11.088Z,1011.35
2022-07-25T01:52:10.598Z,1011.36
2022-07-25T01:53:10.604Z,1011.38
2022-07-25T01:54:10.697Z,1011.33
2022-07-25T01:55:10.609Z,1011.36
2022-07-25T01:56:11.004Z,1011.36
2022-07-25T01:57:10.610Z,1011.35
2022-07-25T01:58:10.611Z,1011.32
2022-07-25T01:59:10.613Z,1011.36
2022-07-25T02:00:10.616Z,1011.34
2022-07-25T02:01:10.722Z,1011.35
2022-07-25T02:02:10.621Z,1011.26
2022-07-25T02:03:10.623Z,1011.30
2022-07-25T02:04:11.233Z,1011.26
2022-07-25T02:05:10.726Z,1011.24
2022-07-25T02:06:10.628Z,1011.21
2022-07-25T02:07:10.635Z,1011.18
2022-07-25T02:08:11.295Z,1011.19
2022-07-25T02:09:10.638Z,1011.20
2022-07-25T02:10:10.640Z,1011.13
2022-07-25T02:11:10.637Z,1011.12
2022-07-25T02:12:10.648Z,1011.11
2022-07-25T02:13:10.650Z,1011.11
2022-07-25T02:14:10.656Z,1011.12
2022-07-25T02:15:10.653Z,1011.15
2022-07-25T02:16:10.653Z,1011.09
2022-07-25T02:17:10.758Z,1011.09
2022-07-25T02:18:10.653Z,1011.12
2022-07-25T02:19:10.661Z,1011.07
2022-07-25T02:20:10.661Z,1011.09
2022-07-25T02:21:14.472Z,1011.06
2022-07-25T02:22:10.663Z,1011.08
2022-07-25T02:23:10.664Z,1011.06
2022-07-25T02:24:10.794Z,1011.04
2022-07-25T02:25:10.672Z,1011.08
2022-07-25T02:26:10.672Z,1011.07
2022-07-25T02:27:10.674Z,1011.03
2022-07-25T02:28:10.877Z,1011.06
2022-07-25T02:29:10.679Z,1011.02
2022-07-25T02:30:10.697Z,1011.02
2022-07-25T02:31:10.788Z,1011.00
2022-07-25T02:32:10.688Z,1011.00
2022-07-25T02:33:10.689Z,1010.99
2022-07-25T02:34:10.690Z,1010.92
2022-07-25T02:35:12.921Z,1010.94
2022-07-25T02:36:10.697Z,1010.91
2022-07-25T02:37:10.695Z,1010.90
2022-07-25T02:38:10.698Z,1010.89
2022-07-25T02:39:10.702Z,1010.86
2022-07-25T02:40:10.703Z,1010.85
2022-07-25T02:41:10.704Z,1010.85
2022-07-25T02:42:10.711Z,1010.85
2022-07-25T02:43:10.705Z,1010.84
2022-07-25T02:44:10.846Z,1010.82
2022-07-25T02:45:10.710Z,1010.86
2022-07-25T02:46:10.793Z,1010.85
2022-07-25T02:47:10.717Z,1010.84
2022-07-25T02:48:10.722Z,1010.86
2022-07-25T02:49:10.893Z,1010.81
2022-07-25T02:50:10.724Z,1010.85
2022-07-25T02:51:10.780Z,1010.83
2022-07-25T02:52:10.729Z,1010.81
2022-07-25T02:53:10.726Z,1010.81
2022-07-25T02:54:11.120Z,1010.76
2022-07-25T02:55:10.739Z,1010.78
2022-07-25T02:56:10.738Z,1010.75
2022-07-25T02:57:10.737Z,1010.75
2022-07-25T02:58:10.742Z,1010.74
2022-07-25T02:59:10.738Z,1010.71
2022-07-25T03:00:10.746Z,1010.72
2022-07-25T03:01:10.824Z,1010.69
2022-07-25T03:02:10.752Z,1010.68
2022-07-25T03:03:10.762Z,1010.68
2022-07-25T03:04:11.120Z,1010.68
2022-07-25T03:05:10.752Z,1010.67
2022-07-25T03:06:10.765Z,1010.68
2022-07-25T03:07:10.760Z,1010.66
2022-07-25T03:08:10.760Z,1010.67
2022-07-25T03:09:10.760Z,1010.63
2022-07-25T03:10:11.321Z,1010.68
2022-07-25T03:11:10.763Z,1010.67
2022-07-25T03:12:10.771Z,1010.64
2022-07-25T03:13:10.780Z,1010.61
2022-07-25T03:14:10.813Z,1010.64
2022-07-25T03:15:10.774Z,1010.57
2022-07-25T03:17:08.428Z,1010.55
2022-07-25T03:18:08.355Z,1010.58
2022-07-25T03:19:08.355Z,1010.56
2022-07-25T03:20:08.361Z,1010.53
2022-07-25T03:21:08.355Z,1010.51
2022-07-25T03:22:08.363Z,1010.51
2022-07-25T03:23:08.364Z,1010.48
2022-07-25T03:24:08.890Z,1010.49
2022-07-25T03:25:15.781Z,1010.48
2022-07-25T03:26:08.372Z,1010.49
2022-07-25T03:27:08.372Z,1010.50
2022-07-25T03:28:08.375Z,1010.51
2022-07-25T03:29:08.373Z,1010.49
2022-07-25T03:30:08.376Z,1010.49
2022-07-25T03:31:08.376Z,1010.50
2022-07-25T03:32:08.452Z,1010.45
2022-07-25T03:33:08.383Z,1010.47
2022-07-25T03:34:08.736Z,1010.49
2022-07-25T03:35:08.385Z,1010.42
2022-07-25T03:36:08.391Z,1010.45
2022-07-25T03:37:08.394Z,1010.41
2022-07-25T03:38:08.393Z,1010.40
2022-07-25T03:39:08.395Z,1010.38
2022-07-25T03:40:08.402Z,1010.35
2022-07-25T03:41:08.395Z,1010.36
2022-07-25T03:42:08.398Z,1010.34
2022-07-25T03:43:08.401Z,1010.30
2022-07-25T03:44:09.110Z,1010.30
2022-07-25T03:45:08.409Z,1010.28
2022-07-25T03:46:08.537Z,1010.25
2022-07-25T03:47:08.412Z,1010.26
2022-07-25T03:48:08.413Z,1010.26
2022-07-25T03:49:08.480Z,1010.22
2022-07-25T03:50:08.421Z,1010.26
2022-07-25T03:51:08.418Z,1010.27
2022-07-25T03:52:08.419Z,1010.24
2022-07-25T03:53:10.369Z,1010.29
2022-07-25T03:54:08.861Z,1010.24
2022-07-25T03:55:08.424Z,1010.31
2022-07-25T03:56:08.426Z,1010.31
2022-07-25T03:57:08.438Z,1010.27
2022-07-25T03:58:08.438Z,1010.31
2022-07-25T03:59:08.433Z,1010.30
2022-07-25T04:00:08.438Z,1010.29
2022-07-25T04:01:08.508Z,1010.32
2022-07-25T04:02:08.491Z,1010.27
2022-07-25T04:03:08.444Z,1010.28
2022-07-25T04:04:08.764Z,1010.24
2022-07-25T04:05:08.448Z,1010.25
2022-07-25T04:06:08.450Z,1010.26
2022-07-25T04:07:08.450Z,1010.23
2022-07-25T04:08:08.453Z,1010.20
2022-07-25T04:09:08.466Z,1010.21
2022-07-25T04:10:08.455Z,1010.18
2022-07-25T04:11:08.455Z,1010.18
2022-07-25T04:12:08.462Z,1010.16
2022-07-25T04:13:08.461Z,1010.14
2022-07-25T04:14:08.898Z,1010.13
2022-07-25T04:15:08.465Z,1010.10
2022-07-25T04:16:12.931Z,1010.13
2022-07-25T04:17:08.557Z,1010.06
2022-07-25T04:18:08.685Z,1010.08
2022-07-25T04:19:08.645Z,1010.05
2022-07-25T04:20:08.472Z,1010.08
2022-07-25T04:21:08.482Z,1010.08
2022-07-25T04:22:08.481Z,1010.04
2022-07-25T04:23:08.480Z,1010.05
2022-07-25T04:24:09.134Z,1009.99
2022-07-25T04:25:08.489Z,1010.01
2022-07-25T04:26:08.487Z,1009.99
2022-07-25T04:27:08.485Z,1010.02
2022-07-25T04:28:08.495Z,1010.01
2022-07-25T04:29:08.499Z,1010.01
2022-07-25T04:30:08.497Z,1010.03
2022-07-25T04:31:08.496Z,1010.02
2022-07-25T04:32:08.613Z,1010.02
2022-07-25T04:33:08.504Z,1010.02
2022-07-25T04:34:08.907Z,1010.01
2022-07-25T04:35:08.505Z,1009.98
2022-07-25T04:36:08.508Z,1010.01
2022-07-25T04:37:08.513Z,1010.00
2022-07-25T04:38:12.055Z,1010.02
2022-07-25T04:39:08.513Z,1010.00
2022-07-25T04:40:08.513Z,1009.98
2022-07-25T04:41:08.519Z,1009.96
2022-07-25T04:42:08.520Z,1009.94
2022-07-25T04:43:08.523Z,1009.93
2022-07-25T04:44:09.254Z,1009.93
2022-07-25T04:45:08.525Z,1009.87
2022-07-25T04:46:08.649Z,1009.86
2022-07-25T04:47:08.536Z,1009.85
2022-07-25T04:48:08.526Z,1009.84
2022-07-25T04:49:08.652Z,1009.85
2022-07-25T04:50:08.537Z,1009.81
2022-07-25T04:51:08.537Z,1009.82
2022-07-25T04:52:08.590Z,1009.76
2022-07-25T04:53:08.551Z,1009.72
2022-07-25T04:54:08.854Z,1009.76
2022-07-25T04:55:08.547Z,1009.73
2022-07-25T04:56:08.545Z,1009.75
2022-07-25T04:57:08.546Z,1009.75
2022-07-25T04:58:08.550Z,1009.70
2022-07-25T04:59:08.552Z,1009.74
2022-07-25T05:00:08.550Z,1009.68
2022-07-25T05:01:08.657Z,1009.69
2022-07-25T05:02:08.656Z,1009.65
2022-07-25T05:03:08.568Z,1009.61
2022-07-25T05:04:08.917Z,1009.60
2022-07-25T05:05:08.572Z,1009.57
2022-07-25T05:06:08.566Z,1009.54
2022-07-25T05:07:08.568Z,1009.51
2022-07-25T05:08:08.571Z,1009.55
2022-07-25T05:09:08.572Z,1009.52
2022-07-25T05:10:08.575Z,1009.50
2022-07-25T05:11:08.577Z,1009.47
2022-07-25T05:12:08.575Z,1009.46
2022-07-25T05:13:08.580Z,1009.39
2022-07-25T05:14:09.022Z,1009.41
2022-07-25T05:15:08.583Z,1009.41
2022-07-25T05:16:08.657Z,1009.40
2022-07-25T05:17:08.587Z,1009.42
2022-07-25T05:18:08.595Z,1009.41
2022-07-25T05:19:08.595Z,1009.40
2022-07-25T05:20:08.591Z,1009.38
2022-07-25T05:21:08.597Z,1009.38
2022-07-25T05:22:08.599Z,1009.38
2022-07-25T05:23:08.601Z,1009.38
2022-07-25T05:24:09.088Z,1009.36
2022-07-25T05:25:08.607Z,1009.39
2022-07-25T05:26:08.608Z,1009.38
2022-07-25T05:27:08.610Z,1009.37
2022-07-25T05:28:08.612Z,1009.32
2022-07-25T05:29:08.619Z,1009.32
2022-07-25T05:30:08.615Z,1009.33
2022-07-25T05:31:08.680Z,1009.32
2022-07-25T05:32:08.618Z,1009.30
2022-07-25T05:33:08.620Z,1009.29
2022-07-25T05:34:09.097Z,1009.31
2022-07-25T05:35:08.635Z,1009.27
2022-07-25T05:36:08.626Z,1009.34
2022-07-25T05:37:08.633Z,1009.31
2022-07-25T05:38:08.632Z,1009.26
2022-07-25T05:39:08.642Z,1009.30
2022-07-25T05:40:08.638Z,1009.25
2022-07-25T05:41:08.641Z,1009.29
2022-07-25T05:42:08.643Z,1009.23
2022-07-25T05:43:08.642Z,1009.20
2022-07-25T05:44:08.976Z,1009.22
2022-07-25T05:45:08.646Z,1009.20
2022-07-25T05:46:08.648Z,1009.22
2022-07-25T05:47:08.747Z,1009.20
2022-07-25T05:48:08.655Z,1009.20
2022-07-25T05:49:08.849Z,1009.21
2022-07-25T05:50:08.663Z,1009.17
2022-07-25T05:51:08.666Z,1009.17
2022-07-25T05:52:12.910Z,1009.16
2022-07-25T05:53:08.664Z,1009.20
2022-07-25T05:54:09.161Z,1009.14
2022-07-25T05:55:08.676Z,1009.17
2022-07-25T05:56:08.679Z,1009.13
2022-07-25T05:57:08.674Z,1009.14
2022-07-25T05:58:08.680Z,1009.12
2022-07-25T05:59:08.683Z,1009.09
2022-07-25T06:00:08.681Z,1009.10
2022-07-25T06:01:08.687Z,1009.07
2022-07-25T06:02:08.779Z,1009.09
2022-07-25T06:03:08.805Z,1009.10
2022-07-25T06:04:09.118Z,1009.13
2022-07-25T06:05:08.695Z,1009.10
2022-07-25T06:06:08.700Z,1009.06
2022-07-25T06:07:08.696Z,1009.08
2022-07-25T06:08:08.698Z,1009.06
2022-07-25T06:09:08.706Z,1009.04
2022-07-25T06:10:08.707Z,1009.04
2022-07-25T06:11:08.711Z,1009.09
2022-07-25T06:12:08.711Z,1009.11
2022-07-25T06:13:08.718Z,1009.10
2022-07-25T06:14:09.168Z,1009.11
2022-07-25T06:15:12.468Z,1009.13
2022-07-25T06:16:08.773Z,1009.12
2022-07-25T06:17:08.728Z,1009.13
2022-07-25T06:18:08.726Z,1009.14
2022-07-25T06:19:08.729Z,1009.07
2022-07-25T06:20:08.738Z,1009.07
2022-07-25T06:21:08.735Z,1009.02
2022-07-25T06:22:08.740Z,1009.10
2022-07-25T06:23:08.744Z,1009.06
2022-07-25T06:24:09.025Z,1009.03
2022-07-25T06:25:08.750Z,1008.97
2022-07-25T06:26:08.753Z,1008.90
2022-07-25T06:27:08.782Z,1008.97
2022-07-25T06:28:08.755Z,1008.93
2022-07-25T06:29:08.758Z,1008.92
2022-07-25T06:30:19.250Z,1008.91
2022-07-25T06:31:08.867Z,1008.89
2022-07-25T06:32:08.759Z,1008.87
2022-07-25T06:33:08.770Z,1008.82
2022-07-25T06:34:09.196Z,1008.76
2022-07-25T06:35:08.773Z,1008.78
2022-07-25T06:36:08.779Z,1008.80
2022-07-25T06:37:08.778Z,1008.77
2022-07-25T06:38:08.778Z,1008.77
2022-07-25T06:39:08.784Z,1008.78
2022-07-25T06:40:08.795Z,1008.78
2022-07-25T06:41:08.788Z,1008.76
2022-07-25T06:42:08.794Z,1008.81
2022-07-25T06:43:08.794Z,1008.81
2022-07-25T06:44:09.209Z,1008.75
2022-07-25T06:45:08.799Z,1008.74
2022-07-25T06:46:08.842Z,1008.76
2022-07-25T06:47:08.885Z,1008.72
2022-07-25T06:48:08.811Z,1008.79
2022-07-25T06:49:08.854Z,1008.83
2022-07-25T06:50:08.817Z,1008.71
2022-07-25T06:51:08.819Z,1008.67
2022-07-25T06:52:08.818Z,1008.68
2022-07-25T06:53:08.828Z,1008.65
2022-07-25T06:54:09.394Z,1008.67
2022-07-25T06:55:08.829Z,1008.68
2022-07-25T06:56:08.834Z,1008.63
2022-07-25T06:57:08.838Z,1008.60
2022-07-25T06:58:08.840Z,1008.62
2022-07-25T06:59:08.840Z,1008.67
2022-07-25T07:00:08.846Z,1008.58
2022-07-25T07:01:08.902Z,1008.57
2022-07-25T07:02:08.852Z,1008.57
2022-07-25T07:03:08.883Z,1008.58
2022-07-25T07:04:09.079Z,1008.55
2022-07-25T07:05:08.866Z,1008.52
2022-07-25T07:06:08.866Z,1008.51
2022-07-25T07:07:08.872Z,1008.50
2022-07-25T07:08:08.872Z,1008.48
2022-07-25T07:09:08.878Z,1008.46
2022-07-25T07:10:08.881Z,1008.41
2022-07-25T07:11:08.883Z,1008.40
2022-07-25T07:12:08.885Z,1008.42
2022-07-25T07:13:08.893Z,1008.40
2022-07-25T07:14:09.450Z,1008.41
2022-07-25T07:15:08.902Z,1008.42
2022-07-25T07:16:08.990Z,1008.44
2022-07-25T07:17:08.908Z,1008.40
2022-07-25T07:18:08.908Z,1008.37
2022-07-25T07:19:09.299Z,1008.40
2022-07-25T07:20:08.916Z,1008.35
2022-07-25T07:21:08.917Z,1008.35
2022-07-25T07:22:08.928Z,1008.31
2022-07-25T07:23:08.924Z,1008.33
2022-07-25T07:24:24.029Z,1008.32
2022-07-25T07:25:08.932Z,1008.28
2022-07-25T07:26:08.932Z,1008.28
2022-07-25T07:27:08.936Z,1008.31
2022-07-25T07:28:08.947Z,1008.23
2022-07-25T07:29:09.250Z,1008.26
2022-07-25T07:30:08.947Z,1008.26
2022-07-25T07:31:17.507Z,1008.27
2022-07-25T07:32:09.070Z,1008.27
2022-07-25T07:33:08.958Z,1008.26
2022-07-25T07:34:08.967Z,1008.29
2022-07-25T07:35:08.974Z,1008.29
2022-07-25T07:36:08.984Z,1008.24
2022-07-25T07:37:08.975Z,1008.28
2022-07-25T07:38:08.981Z,1008.24
2022-07-25T07:39:09.139Z,1008.24
2022-07-25T07:40:08.993Z,1008.28
2022-07-25T07:41:08.993Z,1008.23
2022-07-25T07:42:08.999Z,1008.26
2022-07-25T07:43:09.002Z,1008.32
2022-07-25T07:44:09.008Z,1008.23
2022-07-25T07:45:09.010Z,1008.26
2022-07-25T07:46:09.086Z,1008.23
2022-07-25T07:47:14.339Z,1008.23
2022-07-25T07:48:09.025Z,1008.24
2022-07-25T07:49:09.404Z,1008.21
2022-07-25T07:50:09.035Z,1008.21
2022-07-25T07:51:09.035Z,1008.24
2022-07-25T07:52:09.093Z,1008.21
2022-07-25T07:53:09.046Z,1008.21
2022-07-25T07:54:09.052Z,1008.18
2022-07-25T07:55:09.054Z,1008.21
2022-07-25T07:56:09.060Z,1008.16
2022-07-25T07:57:09.067Z,1008.21
2022-07-25T07:58:09.073Z,1008.14
2022-07-25T07:59:09.415Z,1010.82
2022-07-25T08:00:11.486Z,1015.97
2022-07-25T08:01:09.092Z,1020.57
2022-07-25T08:02:09.163Z,1022.74
2022-07-25T08:03:09.227Z,1022.34
2022-07-25T08:04:09.107Z,1021.92
2022-07-25T08:05:09.107Z,1021.47
2022-07-25T08:06:09.114Z,1020.54
2022-07-25T08:07:09.119Z,1020.71
2022-07-25T08:08:09.130Z,1020.31
2022-07-25T08:09:09.591Z,1019.24
2022-07-25T08:10:09.138Z,1019.41
2022-07-25T08:11:09.152Z,1020.00
2022-07-25T08:12:09.157Z,1019.05
2022-07-25T08:13:09.172Z,1018.17
2022-07-25T08:14:09.568Z,1018.25
2022-07-25T08:15:09.184Z,1018.56
2022-07-25T08:16:09.277Z,1018.41
2022-07-25T08:17:09.210Z,1017.70
2022-07-25T08:18:17.772Z,1016.74
2022-07-25T08:19:09.229Z,1016.15
2022-07-25T08:20:28.004Z,1015.82
2022-07-25T08:21:09.243Z,1015.33
2022-07-25T08:22:09.261Z,1014.57
2022-07-25T08:23:09.270Z,1014.00
2022-07-25T08:24:09.812Z,1013.70
2022-07-25T08:25:09.293Z,1013.26
2022-07-25T08:26:09.303Z,1013.07
2022-07-25T08:27:09.316Z,1012.72
2022-07-25T08:28:09.341Z,1012.15
2022-07-25T08:29:19.453Z,1011.95
2022-07-25T08:30:09.354Z,1011.64
2022-07-25T08:31:09.438Z,1011.17
2022-07-25T08:32:09.378Z,1010.92
2022-07-25T08:33:09.393Z,1010.67
2022-07-25T08:34:09.916Z,1010.51
2022-07-25T08:35:11.483Z,1010.30
2022-07-25T08:36:09.436Z,1010.16
2022-07-25T08:37:09.451Z,1010.04
2022-07-25T08:38:09.475Z,1009.94
2022-07-25T08:39:09.479Z,1009.83
2022-07-25T08:40:09.494Z,1009.80
2022-07-25T08:41:09.512Z,1009.79
2022-07-25T08:42:11.253Z,1009.67
2022-07-25T08:43:09.541Z,1009.59
2022-07-25T08:44:09.762Z,1009.52
2022-07-25T08:45:09.574Z,1009.49
2022-07-25T08:46:09.652Z,1009.40
2022-07-25T08:47:09.741Z,1009.40
2022-07-25T08:48:09.623Z,1009.38
2022-07-25T08:49:09.688Z,1009.44
2022-07-25T08:50:09.660Z,1009.36
2022-07-25T08:51:09.682Z,1009.27
2022-07-25T08:52:09.738Z,1009.22
2022-07-25T08:53:31.981Z,1009.22
2022-07-25T08:54:10.284Z,1009.27
2022-07-25T08:55:09.743Z,1009.26
2022-07-25T08:56:16.094Z,1009.20
2022-07-25T08:57:09.779Z,1007.76
2022-07-25T08:58:09.793Z,1007.82
2022-07-25T08:59:09.812Z,1007.80
2022-07-25T09:00:09.838Z,1007.80
2022-07-25T09:01:10.060Z,1007.79
2022-07-25T09:02:09.977Z,1007.75
2022-07-25T09:03:09.986Z,1007.76
2022-07-25T09:04:10.582Z,1007.78
2022-07-25T09:05:09.921Z,1007.72
2022-07-25T09:06:09.937Z,1007.69
2022-07-25T09:07:09.958Z,1007.71
2022-07-25T09:08:09.973Z,1007.70
2022-07-25T09:09:09.985Z,1007.64
2022-07-25T09:10:10.005Z,1007.69
2022-07-25T09:11:10.029Z,1007.73
2022-07-25T09:12:10.034Z,1007.64
2022-07-25T09:13:10.056Z,1007.67
2022-07-25T09:14:10.629Z,1007.60
2022-07-25T09:15:10.082Z,1007.58
2022-07-25T09:16:10.169Z,1007.54
2022-07-25T09:17:22.292Z,1007.61
2022-07-25T09:18:10.774Z,1007.50
2022-07-25T09:19:10.146Z,1007.50
2022-07-25T09:20:12.206Z,1007.47
2022-07-25T09:21:10.179Z,1007.49
2022-07-25T09:22:10.591Z,1007.54
2022-07-25T09:23:10.207Z,1007.57
2022-07-25T09:24:10.322Z,1007.55
2022-07-25T09:25:10.237Z,1007.44
2022-07-25T09:26:10.247Z,1007.48
2022-07-25T09:27:12.481Z,1007.50
2022-07-25T09:28:10.286Z,1007.47
2022-07-25T09:29:14.563Z,1007.41
2022-07-25T09:30:10.301Z,1007.41
2022-07-25T09:31:10.393Z,1007.34
2022-07-25T09:32:10.330Z,1007.40
2022-07-25T09:33:10.342Z,1007.31
2022-07-25T09:34:10.615Z,1007.27
2022-07-25T09:35:10.366Z,1007.23
2022-07-25T09:36:10.385Z,1007.25
2022-07-25T09:37:10.396Z,1007.28
2022-07-25T09:38:10.407Z,1007.24
2022-07-25T09:39:10.419Z,1007.21
2022-07-25T09:40:10.429Z,1007.30
2022-07-25T09:41:10.443Z,1007.18
2022-07-25T09:42:10.457Z,1007.16
2022-07-25T09:43:10.467Z,1007.15
2022-07-25T09:44:10.650Z,1007.18
2022-07-25T09:45:10.493Z,1007.14
2022-07-25T09:46:10.549Z,1007.11
2022-07-25T09:47:10.518Z,1007.06
2022-07-25T09:48:10.538Z,1006.99
2022-07-25T09:49:10.595Z,1007.01
2022-07-25T09:50:10.555Z,1006.96
2022-07-25T09:51:10.566Z,1006.97
2022-07-25T09:52:10.629Z,1006.92
2022-07-25T09:53:10.588Z,1006.97
2022-07-25T09:54:10.628Z,1006.99
2022-07-25T09:55:10.614Z,1006.92
2022-07-25T09:56:10.618Z,1006.90
2022-07-25T09:57:10.639Z,1006.95
2022-07-25T09:58:10.648Z,1006.84
2022-07-25T09:59:10.659Z,1006.85
2022-07-25T10:00:10.675Z,1006.85
2022-07-25T10:01:10.765Z,1006.78
2022-07-25T10:02:10.823Z,1006.75
2022-07-25T10:03:10.789Z,1006.72
2022-07-25T10:04:10.713Z,1006.76
2022-07-25T10:05:10.730Z,1006.67
2022-07-25T10:06:10.741Z,1006.66
2022-07-25T10:07:10.751Z,1006.63
2022-07-25T10:08:10.761Z,1006.69
2022-07-25T10:09:10.771Z,1006.60
2022-07-25T10:10:10.785Z,1006.59
2022-07-25T10:11:10.793Z,1006.58
2022-07-25T10:12:10.804Z,1006.59
2022-07-25T10:13:11.237Z,1006.49
2022-07-25T10:14:10.827Z,1006.53
2022-07-25T10:15:10.843Z,1006.49
2022-07-25T10:16:10.851Z,1006.49
2022-07-25T10:17:10.927Z,1006.58
2022-07-25T10:18:10.876Z,1006.46
2022-07-25T10:19:10.887Z,1006.48
2022-07-25T10:20:10.900Z,1006.43
2022-07-25T10:21:24.910Z,1006.45
2022-07-25T10:22:10.923Z,1006.50
2022-07-25T10:23:10.927Z,1006.38
2022-07-25T10:24:11.518Z,1006.39
2022-07-25T10:25:10.954Z,1006.37
2022-07-25T10:26:10.962Z,1006.34
2022-07-25T10:27:10.976Z,1006.49
2022-07-25T10:28:10.987Z,1006.46
2022-07-25T10:29:11.023Z,1006.34
2022-07-25T10:30:11.006Z,1006.33
2022-07-25T10:31:11.041Z,1006.34
2022-07-25T10:32:11.028Z,1006.28
2022-07-25T10:33:11.040Z,1006.19
2022-07-25T10:34:11.556Z,1006.24
2022-07-25T10:35:11.062Z,1006.17
2022-07-25T10:36:11.077Z,1006.14
2022-07-25T10:37:11.083Z,1006.13
2022-07-25T10:38:11.099Z,1006.25
2022-07-25T10:39:11.106Z,1006.13
2022-07-25T10:40:11.180Z,1006.19
2022-07-25T10:41:11.124Z,1006.12
2022-07-25T10:42:11.139Z,1006.13
2022-07-25T10:43:11.148Z,1006.16
2022-07-25T10:44:11.307Z,1006.09
2022-07-25T10:45:11.167Z,1006.08
2022-07-25T10:46:11.288Z,1005.95
2022-07-25T10:47:11.190Z,1006.05
2022-07-25T10:48:11.232Z,1005.95
2022-07-25T10:49:11.821Z,1005.93
2022-07-25T10:50:25.667Z,1006.01
2022-07-25T10:51:11.248Z,1005.94
2022-07-25T10:52:11.297Z,1005.88
2022-07-25T10:53:11.253Z,1005.97
2022-07-25T10:54:11.269Z,1005.93
2022-07-25T10:55:11.281Z,1005.87
2022-07-25T10:56:11.296Z,1005.88
2022-07-25T10:57:11.300Z,1005.93
2022-07-25T10:58:18.603Z,1005.95
2022-07-25T10:59:11.324Z,1005.84
2022-07-25T11:00:11.361Z,1005.89
2022-07-25T11:01:11.408Z,1005.86
2022-07-25T11:02:11.393Z,1005.78
2022-07-25T11:03:14.699Z,1005.75
2022-07-25T11:04:11.384Z,1005.76
2022-07-25T11:05:11.390Z,1005.83
2022-07-25T11:06:11.403Z,1005.83
2022-07-25T11:07:11.413Z,1005.80
2022-07-25T11:08:21.728Z,1005.74
2022-07-25T11:09:14.978Z,1005.71
2022-07-25T11:10:11.455Z,1005.73
2022-07-25T11:11:11.469Z,1005.71
2022-07-25T11:12:11.471Z,1005.62
2022-07-25T11:13:11.478Z,1005.64
2022-07-25T11:14:11.494Z,1005.63
2022-07-25T11:15:16.941Z,1005.65
2022-07-25T11:16:11.518Z,1005.58
2022-07-25T11:17:11.590Z,1005.68
2022-07-25T11:18:11.533Z,1005.71
2022-07-25T11:19:11.545Z,1005.63
2022-07-25T11:20:11.564Z,1005.59
2022-07-25T11:21:11.578Z,1005.54
2022-07-25T11:22:11.583Z,1005.56
2022-07-25T11:23:11.598Z,1005.80
2022-07-25T11:24:11.608Z,1005.58
2022-07-25T11:25:11.613Z,1005.62
2022-07-25T11:26:11.630Z,1005.71
2022-07-25T11:27:12.475Z,1005.73
2022-07-25T11:28:11.655Z,1005.65
2022-07-25T11:29:11.664Z,1005.71
2022-07-25T11:30:11.678Z,1005.57
2022-07-25T11:31:11.688Z,1005.53
2022-07-25T11:32:11.822Z,1005.66
2022-07-25T11:33:15.716Z,1005.50
2022-07-25T11:34:11.729Z,1005.46
2022-07-25T11:35:11.729Z,1005.35
2022-07-25T11:36:11.746Z,1005.42
2022-07-25T11:37:11.746Z,1005.42
2022-07-25T11:38:11.765Z,1005.40
2022-07-25T11:39:16.817Z,1005.36
2022-07-25T11:40:11.789Z,1005.61
2022-07-25T11:41:11.807Z,1005.36
2022-07-25T11:42:11.809Z,1005.41
2022-07-25T11:43:11.819Z,1005.41
2022-07-25T11:44:11.838Z,1005.22
2022-07-25T11:45:11.848Z,1005.26
2022-07-25T11:46:11.910Z,1005.29
2022-07-25T11:47:11.870Z,1005.37
2022-07-25T11:48:11.881Z,1006.22
2022-07-25T11:49:12.493Z,1005.47
2022-07-25T11:50:11.905Z,1006.19
2022-07-25T11:51:16.252Z,1005.39
2022-07-25T11:52:12.024Z,1006.13
2022-07-25T11:53:11.941Z,1005.39
2022-07-25T11:54:11.957Z,1006.07
2022-07-25T11:55:11.971Z,1006.11
2022-07-25T11:56:39.701Z,1006.02
2022-07-25T11:57:17.155Z,1006.00
2022-07-25T11:58:12.006Z,1005.97
2022-07-25T11:59:12.569Z,1005.18
2022-07-25T12:00:12.042Z,1005.40
2022-07-25T12:01:12.050Z,1005.18
2022-07-25T12:02:12.242Z,1005.33
2022-07-25T12:03:15.569Z,1005.35
2022-07-25T12:04:12.097Z,1006.06
2022-07-25T12:05:12.112Z,1006.02
2022-07-25T12:06:12.124Z,1005.97